Time;durP1;ratioP1;P1;durP2;ratioP2;P2;SDS_P1;SDS_P2;PMS_P1;PMS_P2;Temp;Humidity;BMP_temperature;BMP_pressure;BME280_temperature;BME280_humidity;BME280_pressure;Samples;Min_cycle;Max_cycle;Signal;HPM_P1;HPM_P2
2024/01/14 00:03:25;;;;;;;51.65;22.00;;;1.90;99.90;;;;;;7355432;32;20209;-55
2024/01/14 00:07:27;;;;;;;54.05;22.80;;;1.70;99.90;;;;;;7363985;32;20126;-56
2024/01/14 00:11:28;;;;;;;54.58;23.33;;;1.80;99.90;;;;;;7353538;32;20734;-56
2024/01/14 00:15:30;;;;;;;51.97;23.15;;;1.70;99.90;;;;;;7353203;32;20278;-56
2024/01/14 00:19:32;;;;;;;64.22;25.25;;;1.70;99.90;;;;;;7358129;32;20327;-56
2024/01/14 00:23:34;;;;;;;55.97;23.62;;;1.70;99.90;;;;;;7359006;32;20128;-56
2024/01/14 00:27:36;;;;;;;56.53;24.00;;;1.70;99.90;;;;;;7356901;32;21331;-55
2024/01/14 00:31:38;;;;;;;59.00;24.17;;;1.70;99.90;;;;;;7350617;32;20142;-53
2024/01/14 00:35:40;;;;;;;54.35;23.83;;;1.70;99.90;;;;;;7363043;32;20244;-56
2024/01/14 00:39:45;;;;;;;56.28;23.83;;;1.70;99.90;;;;;;7354338;32;20095;-55
2024/01/14 00:43:47;;;;;;;57.97;24.70;;;1.70;99.90;;;;;;7360299;32;20178;-56
2024/01/14 00:47:49;;;;;;;55.12;24.27;;;1.70;99.90;;;;;;7350717;32;20249;-57
2024/01/14 00:51:51;;;;;;;58.28;23.83;;;1.70;99.90;;;;;;7354383;32;20219;-55
2024/01/14 00:55:53;;;;;;;53.65;22.85;;;1.70;99.90;;;;;;7356659;32;20189;-55
2024/01/14 00:59:55;;;;;;;58.00;25.25;;;1.80;99.90;;;;;;7355851;32;20190;-57
2024/01/14 01:03:57;;;;;;;51.70;22.37;;;1.80;99.90;;;;;;7355332;32;20134;-57
2024/01/14 01:07:59;;;;;;;57.90;24.20;;;1.80;99.90;;;;;;7361933;32;20138;-53
2024/01/14 01:12:01;;;;;;;49.53;22.13;;;1.80;99.90;;;;;;7358955;32;20167;-56
2024/01/14 01:16:04;;;;;;;55.45;23.75;;;1.80;99.90;;;;;;7358249;32;20194;-57
2024/01/14 01:20:08;;;;;;;58.55;23.80;;;1.80;99.90;;;;;;7353421;32;20508;-55
2024/01/14 01:24:12;;;;;;;59.03;24.48;;;1.80;99.90;;;;;;7358532;32;20239;-56
2024/01/14 01:28:14;;;;;;;54.83;24.00;;;1.80;99.90;;;;;;7355117;32;20123;-55
2024/01/14 01:32:16;;;;;;;55.12;23.00;;;1.80;99.90;;;;;;7362280;32;20214;-55
2024/01/14 01:36:17;;;;;;;60.05;24.10;;;1.80;99.90;;;;;;7357031;32;20121;-54
2024/01/14 01:40:21;;;;;;;53.85;23.62;;;1.80;99.90;;;;;;7359983;32;20173;-55
2024/01/14 01:44:23;;;;;;;56.65;22.65;;;1.80;99.90;;;;;;7354218;32;20224;-55
2024/01/14 01:48:25;;;;;;;52.97;24.42;;;1.80;99.90;;;;;;7360647;32;20506;-55
2024/01/14 01:52:28;;;;;;;55.25;24.42;;;1.80;99.90;;;;;;7356184;32;20486;-55
2024/01/14 01:56:31;;;;;;;58.60;23.45;;;1.80;99.90;;;;;;7361317;32;20137;-55
2024/01/14 02:00:34;;;;;;;54.80;22.62;;;1.90;99.90;;;;;;7353013;32;20653;-56
2024/01/14 02:04:37;;;;;;;52.97;23.27;;;1.90;99.90;;;;;;7356714;32;20099;-56
2024/01/14 02:08:39;;;;;;;53.25;23.23;;;1.90;99.90;;;;;;7357847;32;20222;-55
2024/01/14 02:12:41;;;;;;;55.88;24.42;;;1.90;99.90;;;;;;7356987;32;20181;-55
2024/01/14 02:16:42;;;;;;;55.67;23.62;;;1.90;99.90;;;;;;7354881;32;20213;-55
2024/01/14 02:20:44;;;;;;;54.80;23.65;;;1.80;99.90;;;;;;7360371;32;20254;-56
2024/01/14 02:24:46;;;;;;;56.58;23.50;;;1.90;99.90;;;;;;7369586;32;20448;-58
2024/01/14 02:28:48;;;;;;;55.35;24.15;;;1.90;99.90;;;;;;7353954;32;20180;-56
2024/01/14 02:32:50;;;;;;;57.70;24.98;;;1.90;99.90;;;;;;7352742;32;20130;-56
2024/01/14 02:36:52;;;;;;;51.17;23.38;;;1.90;99.90;;;;;;7363067;32;20870;-56
2024/01/14 02:40:54;;;;;;;55.97;23.08;;;1.90;99.90;;;;;;7358597;32;20221;-56
2024/01/14 02:44:56;;;;;;;58.13;24.60;;;1.80;99.90;;;;;;7362843;32;20115;-56
2024/01/14 02:48:57;;;;;;;51.42;23.38;;;1.90;99.90;;;;;;7357484;32;20107;-54
2024/01/14 02:52:59;;;;;;;55.40;22.50;;;1.90;99.90;;;;;;7357579;32;20146;-55
2024/01/14 02:57:01;;;;;;;60.85;24.45;;;1.80;99.90;;;;;;7365574;32;20107;-55
2024/01/14 03:01:03;;;;;;;58.60;24.75;;;1.80;99.90;;;;;;7359431;32;20369;-57
2024/01/14 03:05:06;;;;;;;54.78;23.10;;;1.70;99.90;;;;;;7356089;32;20460;-56
2024/01/14 03:09:08;;;;;;;51.25;23.42;;;1.70;99.90;;;;;;7358245;32;20212;-56
2024/01/14 03:13:13;;;;;;;54.17;23.85;;;1.80;99.90;;;;;;7357621;32;20680;-56
2024/01/14 03:17:18;;;;;;;53.45;23.10;;;1.80;99.90;;;;;;7359720;32;20516;-56
2024/01/14 03:21:19;;;;;;;53.53;23.62;;;1.80;99.90;;;;;;7357550;32;20230;-55
2024/01/14 03:25:21;;;;;;;54.58;22.40;;;1.90;99.90;;;;;;7358522;32;21251;-55
2024/01/14 03:29:23;;;;;;;57.30;24.67;;;1.80;99.90;;;;;;7361566;32;20115;-55
2024/01/14 03:33:25;;;;;;;55.75;23.25;;;1.80;99.90;;;;;;7361330;32;21060;-59
2024/01/14 03:37:27;;;;;;;58.03;23.45;;;1.70;99.90;;;;;;7359248;32;20922;-56
2024/01/14 03:41:28;;;;;;;57.13;25.25;;;1.70;99.90;;;;;;7363957;32;20231;-56
2024/01/14 03:45:30;;;;;;;50.80;22.50;;;1.70;99.90;;;;;;7362395;32;20237;-56
2024/01/14 03:49:32;;;;;;;49.85;22.05;;;1.70;99.90;;;;;;7360072;32;20190;-55
2024/01/14 03:53:34;;;;;;;58.25;23.35;;;1.80;99.90;;;;;;7356097;32;20644;-55
2024/01/14 03:57:36;;;;;;;51.90;23.90;;;1.80;99.90;;;;;;7366697;32;20167;-56
2024/01/14 04:01:38;;;;;;;50.60;22.17;;;1.80;99.90;;;;;;7356308;32;20119;-56
2024/01/14 04:05:40;;;;;;;51.90;21.08;;;1.70;99.90;;;;;;7353730;32;20374;-56
2024/01/14 04:09:42;;;;;;;49.92;21.50;;;1.80;99.90;;;;;;7366260;32;20170;-55
2024/01/14 04:13:44;;;;;;;48.42;21.10;;;1.80;99.90;;;;;;7355829;32;20194;-56
2024/01/14 04:17:45;;;;;;;47.90;22.67;;;1.80;99.90;;;;;;7360865;32;20167;-55
2024/01/14 04:21:48;;;;;;;45.00;20.48;;;1.80;99.90;;;;;;7360376;32;20640;-54
2024/01/14 04:25:50;;;;;;;45.55;21.00;;;1.80;99.90;;;;;;7362162;32;20129;-55
2024/01/14 04:29:52;;;;;;;44.92;20.77;;;1.90;99.90;;;;;;7358919;32;20099;-56
2024/01/14 04:33:56;;;;;;;39.83;18.87;;;1.90;99.90;;;;;;7360939;32;20273;-55
2024/01/14 04:37:58;;;;;;;41.25;19.42;;;1.80;99.90;;;;;;7361158;32;20145;-55
2024/01/14 04:42:02;;;;;;;46.55;20.73;;;1.80;99.90;;;;;;7355795;32;20139;-55
2024/01/14 04:46:08;;;;;;;46.40;20.60;;;1.90;99.90;;;;;;7358511;32;20576;-55
2024/01/14 04:50:10;;;;;;;44.55;20.60;;;1.90;99.90;;;;;;7361673;32;20234;-55
2024/01/14 04:54:12;;;;;;;42.85;18.12;;;1.90;99.90;;;;;;7357568;32;20162;-56
2024/01/14 04:58:14;;;;;;;43.67;21.05;;;1.90;99.90;;;;;;7343832;32;20267;-56
2024/01/14 05:02:16;;;;;;;43.25;19.37;;;1.80;99.90;;;;;;7352180;32;20131;-53
2024/01/14 05:06:18;;;;;;;40.12;18.48;;;1.80;99.90;;;;;;7361136;32;20557;-56
2024/01/14 05:10:19;;;;;;;45.42;20.15;;;1.80;99.90;;;;;;7360179;32;20167;-55
2024/01/14 05:14:21;;;;;;;42.33;20.02;;;1.70;99.90;;;;;;7359690;32;20126;-57
2024/01/14 05:18:23;;;;;;;38.15;19.10;;;1.70;99.90;;;;;;7366910;32;20172;-56
2024/01/14 05:22:26;;;;;;;44.22;20.45;;;1.60;99.90;;;;;;7364540;32;20206;-56
2024/01/14 05:26:27;;;;;;;49.80;20.35;;;1.60;99.90;;;;;;7363313;32;20161;-55
2024/01/14 05:30:29;;;;;;;50.45;21.37;;;1.60;99.90;;;;;;7359757;32;20347;-56
2024/01/14 05:34:31;;;;;;;48.35;20.30;;;1.60;99.90;;;;;;7354950;32;20920;-55
2024/01/14 05:38:33;;;;;;;45.90;19.73;;;1.70;99.90;;;;;;7356110;32;20179;-54
2024/01/14 05:42:35;;;;;;;43.83;20.35;;;1.70;99.90;;;;;;7360822;32;20540;-55
2024/01/14 05:46:36;;;;;;;46.95;21.00;;;1.70;99.90;;;;;;7363712;32;20973;-56
2024/01/14 05:50:38;;;;;;;48.45;21.67;;;1.70;99.90;;;;;;7366421;32;20514;-54
2024/01/14 05:54:43;;;;;;;50.33;21.50;;;1.60;99.90;;;;;;7359356;32;20103;-56
2024/01/14 05:58:45;;;;;;;47.85;20.40;;;1.60;99.90;;;;;;7352329;32;20125;-55
2024/01/14 06:02:47;;;;;;;44.67;20.65;;;1.50;99.90;;;;;;7355722;32;20588;-55
2024/01/14 06:06:49;;;;;;;47.05;20.37;;;1.60;99.90;;;;;;7357531;32;20095;-55
2024/01/14 06:10:51;;;;;;;42.30;18.52;;;1.60;99.90;;;;;;7359320;32;20115;-54
2024/01/14 06:14:52;;;;;;;43.45;18.27;;;1.60;99.90;;;;;;7353238;32;20127;-56
2024/01/14 06:18:54;;;;;;;46.58;19.87;;;1.60;99.90;;;;;;7353207;32;20322;-56
2024/01/14 06:22:56;;;;;;;45.28;20.30;;;1.60;99.90;;;;;;7354998;32;20632;-56
2024/01/14 06:26:58;;;;;;;37.40;17.50;;;1.60;99.90;;;;;;7354642;32;20567;-55
2024/01/14 06:31:00;;;;;;;41.67;19.85;;;1.60;99.90;;;;;;7366752;32;20279;-57
2024/01/14 06:35:02;;;;;;;42.70;19.08;;;1.70;99.90;;;;;;7368762;32;20237;-55
2024/01/14 06:39:05;;;;;;;48.53;20.62;;;1.70;99.90;;;;;;7362870;32;20099;-55
2024/01/14 06:43:08;;;;;;;42.92;19.60;;;1.60;99.90;;;;;;7368697;32;20584;-55
2024/01/14 06:47:09;;;;;;;42.83;18.65;;;1.60;99.90;;;;;;7373757;32;20152;-56
2024/01/14 06:51:11;;;;;;;43.33;17.92;;;1.60;99.90;;;;;;7352832;32;20130;-53
2024/01/14 06:55:14;;;;;;;42.28;18.55;;;1.60;99.90;;;;;;7368645;32;20107;-54
2024/01/14 06:59:24;;;;;;;40.15;17.70;;;1.60;99.90;;;;;;7358146;32;20801;-55
2024/01/14 07:03:26;;;;;;;40.33;18.45;;;1.60;99.90;;;;;;7357467;32;20217;-55
2024/01/14 07:07:28;;;;;;;40.72;18.77;;;1.60;99.90;;;;;;7357879;32;20099;-55
2024/01/14 07:11:30;;;;;;;45.38;18.75;;;1.60;99.90;;;;;;7361151;32;20175;-55
2024/01/14 07:15:32;;;;;;;39.78;18.23;;;1.60;99.90;;;;;;7365705;32;20226;-54
2024/01/14 07:19:35;;;;;;;42.67;18.48;;;1.60;99.90;;;;;;7369091;32;20419;-54
2024/01/14 07:23:37;;;;;;;37.03;18.73;;;1.70;99.90;;;;;;7363320;32;20138;-58
2024/01/14 07:28:03;;;;;;;41.83;18.65;;;1.70;99.90;;;;;;7362928;32;20366;-55
2024/01/14 07:32:04;;;;;;;;;;;1.70;99.90;;;;;;7360027;32;20168;-56
2024/01/14 07:36:09;;;;;;;46.58;19.60;;;1.80;99.90;;;;;;7365382;32;20010;-56
2024/01/14 07:40:11;;;;;;;46.30;20.35;;;1.80;99.90;;;;;;7370507;32;20582;-55
2024/01/14 07:44:13;;;;;;;44.47;19.55;;;1.80;99.90;;;;;;7357731;32;20115;-57
2024/01/14 07:48:15;;;;;;;47.45;20.60;;;1.80;99.90;;;;;;7353079;32;20202;-59
2024/01/14 07:52:17;;;;;;;49.25;20.15;;;1.80;99.90;;;;;;7364910;32;20216;-57
2024/01/14 07:56:20;;;;;;;45.47;19.17;;;1.80;99.90;;;;;;7354706;32;20111;-58
2024/01/14 08:00:21;;;;;;;41.80;18.85;;;1.70;99.90;;;;;;7359322;32;20324;-56
2024/01/14 08:04:23;;;;;;;42.65;18.62;;;1.60;99.90;;;;;;7367339;32;20157;-57
2024/01/14 08:08:25;;;;;;;38.80;17.98;;;1.50;99.90;;;;;;7359894;32;20197;-58
2024/01/14 08:12:27;;;;;;;39.38;18.15;;;1.60;99.90;;;;;;7365185;32;20233;-56
2024/01/14 08:16:28;;;;;;;44.55;18.83;;;1.50;99.90;;;;;;7365633;32;20130;-56
2024/01/14 08:20:32;;;;;;;42.55;18.25;;;1.60;99.90;;;;;;7363727;32;20103;-58
2024/01/14 08:24:34;;;;;;;42.38;18.15;;;1.50;99.90;;;;;;7358338;32;20214;-57
2024/01/14 08:28:36;;;;;;;42.00;19.83;;;1.50;99.90;;;;;;7361759;32;20590;-57
2024/01/14 08:32:38;;;;;;;46.60;19.60;;;1.50;99.90;;;;;;7359155;32;20119;-56
2024/01/14 08:36:40;;;;;;;42.10;18.85;;;1.50;99.90;;;;;;7359674;32;20513;-56
2024/01/14 08:40:42;;;;;;;43.00;19.45;;;1.50;99.90;;;;;;7359896;32;20324;-59
2024/01/14 08:44:44;;;;;;;46.75;18.33;;;1.50;99.90;;;;;;7361406;32;20445;-56
2024/01/14 08:48:47;;;;;;;36.22;16.73;;;1.60;99.90;;;;;;7357703;32;20125;-56
2024/01/14 08:52:49;;;;;;;34.60;16.02;;;1.50;99.90;;;;;;7362050;32;20762;-57
2024/01/14 08:56:50;;;;;;;36.90;16.52;;;1.50;99.90;;;;;;7357724;32;20103;-58
2024/01/14 09:00:54;;;;;;;37.60;16.73;;;1.40;99.90;;;;;;7355290;32;20100;-58
2024/01/14 09:04:56;;;;;;;39.03;16.17;;;1.50;99.90;;;;;;7364562;32;20309;-59
2024/01/14 09:08:58;;;;;;;39.13;16.35;;;1.40;99.90;;;;;;7362530;32;20265;-59
2024/01/14 09:13:00;;;;;;;36.88;16.00;;;1.50;99.90;;;;;;7360954;32;20119;-58
2024/01/14 09:17:02;;;;;;;38.40;15.48;;;1.30;99.90;;;;;;7364313;32;20116;-56
2024/01/14 09:21:04;;;;;;;31.87;14.50;;;1.20;99.90;;;;;;7355701;32;20210;-58
2024/01/14 09:25:06;;;;;;;34.13;15.82;;;1.20;99.90;;;;;;7355152;32;20649;-58
2024/01/14 09:29:09;;;;;;;39.05;15.98;;;1.10;99.90;;;;;;7357124;32;20103;-57
2024/01/14 09:33:11;;;;;;;40.60;16.25;;;1.20;99.90;;;;;;7358161;32;20131;-57
2024/01/14 09:37:13;;;;;;;36.38;16.12;;;1.20;99.90;;;;;;7349259;32;20145;-57
2024/01/14 09:41:31;;;;;;;39.42;16.10;;;1.20;99.90;;;;;;7358649;32;20813;-59
2024/01/14 09:45:34;;;;;;;32.28;14.32;;;1.30;99.90;;;;;;7354610;32;20131;-60
2024/01/14 09:49:47;;;;;;;28.67;13.07;;;1.20;99.90;;;;;;7358487;32;20135;-57
2024/01/14 09:53:49;;;;;;;27.87;12.80;;;1.30;99.90;;;;;;7355292;32;20104;-58
2024/01/14 09:57:52;;;;;;;25.77;10.98;;;1.30;99.90;;;;;;7355537;32;20551;-59
2024/01/14 10:01:54;;;;;;;24.85;11.73;;;1.30;99.90;;;;;;7359947;32;20182;-58
2024/01/14 10:05:57;;;;;;;25.58;11.12;;;1.30;99.90;;;;;;7366634;32;20248;-59
2024/01/14 10:09:59;;;;;;;23.92;10.43;;;1.30;99.90;;;;;;7365108;32;20133;-59
2024/01/14 10:14:02;;;;;;;24.90;11.25;;;1.30;99.90;;;;;;7364713;32;20114;-61
2024/01/14 10:18:04;;;;;;;22.30;10.60;;;1.30;99.90;;;;;;7362273;32;20137;-59
2024/01/14 10:22:07;;;;;;;20.88;10.20;;;1.40;99.90;;;;;;7367525;32;20285;-57
2024/01/14 10:26:24;;;;;;;23.08;10.43;;;1.30;99.90;;;;;;7349291;32;20095;-56
2024/01/14 10:30:26;;;;;;;27.00;11.68;;;1.20;99.90;;;;;;7358672;32;20206;-57
2024/01/14 10:34:30;;;;;;;22.60;10.75;;;1.20;99.90;;;;;;7362075;32;20125;-55
2024/01/14 10:38:32;;;;;;;21.90;10.10;;;1.20;99.90;;;;;;7362309;32;20138;-58
2024/01/14 10:42:37;;;;;;;21.30;10.27;;;1.20;99.90;;;;;;7360561;32;20995;-58
2024/01/14 10:46:41;;;;;;;21.92;10.32;;;1.20;99.90;;;;;;7364260;32;20103;-56
2024/01/14 10:50:45;;;;;;;21.50;10.55;;;1.20;99.90;;;;;;7365827;32;20286;-56
2024/01/14 10:54:56;;;;;;;21.85;10.25;;;1.10;99.90;;;;;;7358369;32;20264;-55
2024/01/14 10:59:01;;;;;;;22.98;11.07;;;1.20;99.90;;;;;;7361589;32;20326;-57
2024/01/14 11:03:05;;;;;;;23.52;9.75;;;1.10;99.90;;;;;;7359015;32;20121;-57
2024/01/14 11:07:07;;;;;;;21.90;9.40;;;1.20;99.90;;;;;;7360134;32;20194;-56
2024/01/14 11:11:10;;;;;;;22.95;9.60;;;1.20;99.90;;;;;;7360991;32;20110;-56
2024/01/14 11:15:30;;;;;;;22.30;10.15;;;1.20;99.90;;;;;;7356767;32;20528;-55
2024/01/14 11:19:36;;;;;;;21.27;9.93;;;1.20;99.90;;;;;;7355252;32;20123;-58
2024/01/14 11:23:40;;;;;;;18.27;8.95;;;1.30;99.90;;;;;;7358403;32;20482;-58
2024/01/14 11:27:43;;;;;;;21.48;9.93;;;1.30;99.90;;;;;;7364683;32;20149;-57
2024/01/14 11:32:04;;;;;;;20.90;9.98;;;1.20;99.90;;;;;;7357326;32;20262;-56
2024/01/14 11:36:07;;;;;;;20.70;8.60;;;1.30;99.90;;;;;;7355162;32;20115;-58
2024/01/14 11:40:26;;;;;;;22.00;9.50;;;1.30;99.90;;;;;;7355960;32;20125;-58
2024/01/14 11:44:31;;;;;;;19.23;9.48;;;1.30;99.90;;;;;;7362499;32;20258;-57
2024/01/14 11:48:33;;;;;;;20.15;9.35;;;1.30;99.90;;;;;;7355203;32;20123;-57
2024/01/14 11:52:45;;;;;;;16.87;8.63;;;1.20;99.90;;;;;;7355280;32;20127;-58
2024/01/14 11:56:46;;;;;;;14.07;7.70;;;1.30;99.90;;;;;;7358584;32;20228;-56
2024/01/14 12:00:51;;;;;;;17.98;7.85;;;1.40;99.90;;;;;;7357636;32;20820;-56
2024/01/14 12:04:54;;;;;;;18.02;9.00;;;1.40;99.90;;;;;;7356707;32;20247;-55
2024/01/14 12:09:12;;;;;;;18.23;9.05;;;1.30;99.90;;;;;;7359973;32;20143;-58
2024/01/14 12:13:14;;;;;;;19.85;9.27;;;1.40;99.90;;;;;;7354356;32;20244;-57
2024/01/14 12:17:16;;;;;;;18.70;8.77;;;1.40;99.90;;;;;;7365781;32;20125;-58
2024/01/14 12:21:19;;;;;;;18.20;9.77;;;1.40;99.90;;;;;;7363678;32;20371;-56
2024/01/14 12:25:33;;;;;;;20.00;9.13;;;1.40;99.90;;;;;;7362760;32;20513;-58
2024/01/14 12:29:35;;;;;;;24.20;10.25;;;1.40;99.90;;;;;;7363296;32;20243;-58
2024/01/14 12:33:37;;;;;;;24.50;10.68;;;1.30;99.90;;;;;;7366927;32;20227;-55
2024/01/14 12:37:39;;;;;;;21.02;10.15;;;1.30;99.90;;;;;;7358912;32;21999;-57
2024/01/14 12:41:41;;;;;;;23.35;11.12;;;1.30;99.90;;;;;;7355109;32;20244;-55
2024/01/14 12:45:54;;;;;;;25.12;12.85;;;1.40;99.90;;;;;;7361584;32;20125;-57
2024/01/14 12:49:56;;;;;;;23.33;10.43;;;1.40;99.90;;;;;;7350553;32;20111;-57
2024/01/14 12:53:58;;;;;;;25.70;11.00;;;1.40;99.90;;;;;;7359418;32;20185;-57
2024/01/14 12:58:00;;;;;;;27.80;14.77;;;1.40;99.90;;;;;;7363880;32;20123;-55
2024/01/14 13:02:03;;;;;;;25.37;12.93;;;1.30;99.90;;;;;;7348818;32;20237;-56
2024/01/14 13:06:05;;;;;;;19.60;10.25;;;1.40;99.90;;;;;;7360322;32;20160;-57
2024/01/14 13:10:07;;;;;;;19.48;8.90;;;1.50;99.90;;;;;;7359061;32;20213;-56
2024/01/14 13:14:09;;;;;;;24.00;11.90;;;1.50;99.90;;;;;;7355843;32;20178;-56
2024/01/14 13:18:12;;;;;;;19.85;9.80;;;1.40;99.90;;;;;;7355594;32;20162;-60
2024/01/14 13:22:14;;;;;;;20.20;10.27;;;1.40;99.90;;;;;;7352139;32;20122;-58
2024/01/14 13:26:15;;;;;;;18.33;10.15;;;1.40;99.90;;;;;;7362872;32;20111;-58
2024/01/14 13:30:18;;;;;;;21.55;9.70;;;1.40;99.90;;;;;;7361635;32;20142;-56
2024/01/14 13:34:20;;;;;;;27.40;11.60;;;1.30;99.90;;;;;;7357413;32;20209;-56
2024/01/14 13:38:22;;;;;;;26.17;12.48;;;1.20;99.90;;;;;;7357298;32;20359;-55
2024/01/14 13:42:24;;;;;;;22.48;10.50;;;1.20;99.90;;;;;;7361404;32;20569;-57
2024/01/14 13:46:26;;;;;;;25.52;11.45;;;1.20;99.90;;;;;;7337396;32;20748;-57
2024/01/14 13:50:27;;;;;;;24.45;11.57;;;1.20;99.90;;;;;;7351974;32;20257;-56
2024/01/14 13:54:29;;;;;;;24.87;10.77;;;1.20;99.90;;;;;;7344332;32;20107;-56
2024/01/14 13:58:31;;;;;;;21.60;10.35;;;1.20;99.90;;;;;;7352050;32;20243;-57
2024/01/14 14:02:33;;;;;;;23.98;11.25;;;1.10;99.90;;;;;;7356210;32;20206;-56
2024/01/14 14:06:35;;;;;;;24.75;11.18;;;1.10;99.90;;;;;;7362735;32;20178;-56
2024/01/14 14:10:39;;;;;;;24.87;12.10;;;1.20;99.90;;;;;;7364103;32;20107;-57
2024/01/14 14:14:52;;;;;;;23.17;12.18;;;1.20;99.90;;;;;;7361323;32;20107;-56
2024/01/14 14:18:53;;;;;;;21.75;10.18;;;1.20;99.90;;;;;;7350336;32;20204;-56
2024/01/14 14:22:55;;;;;;;26.08;13.50;;;1.20;99.90;;;;;;7357856;32;20107;-56
2024/01/14 14:26:57;;;;;;;34.47;16.55;;;1.10;99.90;;;;;;7356040;32;20115;-56
2024/01/14 14:31:00;;;;;;;24.87;12.25;;;1.10;99.90;;;;;;7353764;32;20114;-56
2024/01/14 14:35:02;;;;;;;32.42;13.52;;;1.20;99.90;;;;;;7355439;32;20135;-58
2024/01/14 14:39:04;;;;;;;34.28;15.27;;;1.20;99.90;;;;;;7353164;32;20133;-63
2024/01/14 14:43:06;;;;;;;23.40;11.12;;;1.20;99.90;;;;;;7364523;32;20729;-57
2024/01/14 14:47:08;;;;;;;32.35;13.35;;;1.20;99.90;;;;;;7358575;32;20281;-58
2024/01/14 14:51:09;;;;;;;27.80;11.68;;;1.20;99.90;;;;;;7359617;32;20151;-58
2024/01/14 14:55:21;;;;;;;23.20;10.70;;;1.30;99.90;;;;;;7357386;32;20140;-58
2024/01/14 14:59:23;;;;;;;33.70;15.80;;;1.30;99.90;;;;;;7360268;32;20122;-57
2024/01/14 15:03:24;;;;;;;30.33;12.90;;;1.20;99.90;;;;;;7360617;32;20106;-57
2024/01/14 15:07:27;;;;;;;21.00;10.07;;;1.30;99.90;;;;;;7361722;32;20265;-57
2024/01/14 15:11:29;;;;;;;28.92;12.95;;;1.20;99.90;;;;;;7355347;32;20143;-57
2024/01/14 15:15:37;;;;;;;28.08;13.23;;;1.20;99.90;;;;;;7359583;32;20169;-56
2024/01/14 15:19:39;;;;;;;33.67;12.65;;;1.30;99.90;;;;;;7359621;32;21939;-57
2024/01/14 15:23:41;;;;;;;27.65;14.63;;;1.30;99.90;;;;;;7359357;32;20126;-56
2024/01/14 15:27:43;;;;;;;26.87;12.60;;;1.20;99.90;;;;;;7362023;32;20457;-55
2024/01/14 15:31:45;;;;;;;23.75;11.75;;;1.10;99.90;;;;;;7356042;32;20258;-57
2024/01/14 15:35:47;;;;;;;25.35;10.80;;;1.10;99.90;;;;;;7354497;32;20577;-56
2024/01/14 15:39:49;;;;;;;27.50;11.23;;;1.10;99.90;;;;;;7358936;32;20248;-55
2024/01/14 15:43:51;;;;;;;26.58;11.18;;;1.10;99.90;;;;;;7368853;32;20138;-56
2024/01/14 15:47:53;;;;;;;25.37;11.32;;;1.10;99.90;;;;;;7362974;32;20145;-56
2024/01/14 15:51:55;;;;;;;22.13;10.98;;;1.10;99.90;;;;;;7372935;32;20106;-55
2024/01/14 15:55:57;;;;;;;19.08;10.00;;;1.10;99.90;;;;;;7369337;32;20129;-56
2024/01/14 15:59:59;;;;;;;23.05;10.85;;;1.00;99.90;;;;;;7352425;32;20282;-55
2024/01/14 16:04:01;;;;;;;22.40;11.07;;;1.00;99.90;;;;;;7354598;32;20151;-53
2024/01/14 16:08:03;;;;;;;22.45;11.23;;;1.00;99.90;;;;;;7363940;32;20126;-55
2024/01/14 16:12:05;;;;;;;22.85;11.15;;;1.00;99.90;;;;;;7357520;32;20103;-56
2024/01/14 16:16:07;;;;;;;22.37;11.20;;;1.00;99.90;;;;;;7358876;32;20190;-55
2024/01/14 16:20:10;;;;;;;21.37;11.52;;;1.00;99.90;;;;;;7363191;32;20302;-55
2024/01/14 16:24:11;;;;;;;24.58;11.30;;;1.00;99.90;;;;;;7361240;32;20638;-56
2024/01/14 16:28:16;;;;;;;22.13;10.30;;;1.10;99.90;;;;;;7354375;32;20115;-55
2024/01/14 16:32:18;;;;;;;22.95;11.10;;;1.00;99.90;;;;;;7366034;32;20103;-56
2024/01/14 16:36:20;;;;;;;21.20;11.15;;;1.00;99.90;;;;;;7360556;32;20145;-56
2024/01/14 16:40:22;;;;;;;23.33;10.70;;;0.90;99.90;;;;;;7354483;32;20216;-53
2024/01/14 16:44:24;;;;;;;24.12;11.43;;;0.90;99.90;;;;;;7348396;32;20114;-55
2024/01/14 16:48:26;;;;;;;22.60;11.63;;;0.90;99.90;;;;;;7363055;32;20111;-55
2024/01/14 16:52:28;;;;;;;26.50;11.45;;;1.00;99.90;;;;;;7359904;32;20174;-56
2024/01/14 16:56:32;;;;;;;26.20;13.73;;;1.00;99.90;;;;;;7353295;32;20177;-56
2024/01/14 17:00:39;;;;;;;26.35;12.57;;;0.90;99.90;;;;;;7360111;32;20140;-56
2024/01/14 17:04:46;;;;;;;27.37;13.68;;;0.90;99.90;;;;;;7364625;32;20233;-55
2024/01/14 17:08:49;;;;;;;31.15;13.88;;;1.00;99.90;;;;;;7366912;32;20121;-56
2024/01/14 17:12:51;;;;;;;26.17;12.15;;;1.00;99.90;;;;;;7363483;32;20123;-57
2024/01/14 17:16:53;;;;;;;24.35;12.55;;;0.90;99.90;;;;;;7347160;32;20182;-57
2024/01/14 17:20:55;;;;;;;25.73;12.10;;;0.90;99.90;;;;;;7359970;32;20664;-56
2024/01/14 17:24:56;;;;;;;26.08;13.07;;;0.90;99.90;;;;;;7367616;32;20221;-57
2024/01/14 17:28:58;;;;;;;25.95;12.52;;;1.00;99.90;;;;;;7359606;32;20126;-58
2024/01/14 17:33:00;;;;;;;25.45;12.07;;;1.00;99.90;;;;;;7362504;32;20144;-56
2024/01/14 17:37:02;;;;;;;25.42;12.73;;;1.00;99.90;;;;;;7360281;32;20111;-57
2024/01/14 17:41:05;;;;;;;28.25;12.90;;;1.00;99.90;;;;;;7364004;32;20175;-57
2024/01/14 17:45:07;;;;;;;25.58;12.40;;;1.00;99.90;;;;;;7362801;32;20736;-57
2024/01/14 17:49:09;;;;;;;27.65;12.75;;;1.00;99.90;;;;;;7360878;32;20209;-56
2024/01/14 17:53:11;;;;;;;28.27;12.35;;;1.00;99.90;;;;;;7367872;32;20145;-57
2024/01/14 17:57:13;;;;;;;25.65;13.20;;;1.00;99.90;;;;;;7356574;32;20209;-57
2024/01/14 18:01:14;;;;;;;29.30;13.95;;;0.90;99.90;;;;;;7359999;32;20153;-57
2024/01/14 18:05:16;;;;;;;28.80;13.40;;;1.00;99.90;;;;;;7360655;32;20131;-57
2024/01/14 18:09:18;;;;;;;25.52;13.10;;;1.10;99.90;;;;;;7365293;32;20661;-58
2024/01/14 18:13:20;;;;;;;27.87;13.32;;;1.00;99.90;;;;;;7364068;32;20111;-57
2024/01/14 18:17:22;;;;;;;29.27;13.07;;;1.10;99.90;;;;;;7363789;32;20163;-59
2024/01/14 18:21:24;;;;;;;32.05;13.62;;;1.10;99.90;;;;;;7367135;32;20128;-58
2024/01/14 18:25:26;;;;;;;31.95;14.48;;;1.00;99.90;;;;;;7363242;32;20099;-58
2024/01/14 18:29:28;;;;;;;28.15;13.48;;;0.90;99.90;;;;;;7358725;32;20253;-57
2024/01/14 18:33:30;;;;;;;31.30;14.48;;;1.00;99.90;;;;;;7362536;32;20216;-56
2024/01/14 18:37:32;;;;;;;30.85;13.62;;;1.00;99.90;;;;;;7367775;32;20110;-56
2024/01/14 18:41:34;;;;;;;33.70;14.35;;;1.00;99.90;;;;;;7364744;32;20114;-56
2024/01/14 18:45:36;;;;;;;31.52;14.60;;;1.10;99.90;;;;;;7358582;32;20111;-55
2024/01/14 18:49:39;;;;;;;33.78;15.05;;;1.00;99.90;;;;;;7355926;32;20261;-56
2024/01/14 18:53:40;;;;;;;33.05;14.77;;;1.10;99.90;;;;;;7363905;32;20141;-57
2024/01/14 18:57:42;;;;;;;37.70;16.10;;;1.10;99.90;;;;;;7360502;32;20222;-56
2024/01/14 19:01:44;;;;;;;30.52;14.82;;;1.10;99.90;;;;;;7355975;32;20155;-56
2024/01/14 19:05:46;;;;;;;33.35;15.25;;;1.10;99.90;;;;;;7360447;32;20157;-55
2024/01/14 19:09:48;;;;;;;39.45;16.62;;;1.10;99.90;;;;;;7355663;32;20123;-58
2024/01/14 19:13:52;;;;;;;30.33;15.02;;;1.10;99.90;;;;;;7356705;32;20286;-57
2024/01/14 19:17:54;;;;;;;28.92;14.52;;;1.10;99.90;;;;;;7356493;32;20253;-56
2024/01/14 19:21:57;;;;;;;26.87;13.73;;;1.00;99.90;;;;;;7355862;32;20149;-55
2024/01/14 19:25:59;;;;;;;30.75;13.70;;;1.00;99.90;;;;;;7354004;32;20099;-56
2024/01/14 19:30:01;;;;;;;33.42;17.05;;;1.00;99.90;;;;;;7354481;32;20238;-57
2024/01/14 19:34:03;;;;;;;29.67;15.18;;;0.90;99.90;;;;;;7359488;32;20222;-57
2024/01/14 19:38:05;;;;;;;30.95;14.60;;;0.90;99.90;;;;;;7358521;32;20106;-61
2024/01/14 19:42:10;;;;;;;32.92;13.95;;;1.40;99.90;;;;;;7361485;32;20122;-61
2024/01/14 19:46:12;;;;;;;28.60;15.05;;;1.30;99.90;;;;;;7356121;32;20163;-55
2024/01/14 19:50:14;;;;;;;27.85;14.73;;;1.20;99.90;;;;;;7363593;32;20514;-56
2024/01/14 19:54:17;;;;;;;29.77;14.52;;;1.00;99.90;;;;;;7353398;32;20225;-56
2024/01/14 19:58:19;;;;;;;30.60;14.85;;;0.90;99.90;;;;;;7349864;32;20129;-56
2024/01/14 20:02:20;;;;;;;30.00;15.13;;;0.90;99.90;;;;;;7359129;32;20217;-55
2024/01/14 20:06:23;;;;;;;28.70;15.48;;;0.80;99.90;;;;;;7354027;32;20247;-55
2024/01/14 20:10:25;;;;;;;34.58;15.85;;;0.80;99.90;;;;;;7356896;32;20132;-57
2024/01/14 20:14:27;;;;;;;30.05;14.43;;;0.80;99.90;;;;;;7359365;32;20178;-55
2024/01/14 20:18:29;;;;;;;33.08;15.48;;;0.80;99.90;;;;;;7364992;32;20826;-57
2024/01/14 20:22:31;;;;;;;34.97;16.35;;;0.80;99.90;;;;;;7360734;32;20186;-56
2024/01/14 20:26:33;;;;;;;33.55;16.73;;;0.80;99.90;;;;;;7352267;32;20243;-56
2024/01/14 20:30:34;;;;;;;36.17;15.30;;;0.80;99.90;;;;;;7357281;32;20224;-58
2024/01/14 20:34:36;;;;;;;33.30;16.08;;;0.80;99.90;;;;;;7351694;32;20158;-56
2024/01/14 20:38:38;;;;;;;35.42;17.37;;;0.70;99.90;;;;;;7355172;32;20204;-55
2024/01/14 20:42:40;;;;;;;30.60;15.82;;;0.80;99.90;;;;;;7359731;32;20128;-55
2024/01/14 20:46:42;;;;;;;31.45;16.27;;;0.90;99.90;;;;;;7359798;32;20172;-54
2024/01/14 20:50:44;;;;;;;34.60;16.52;;;0.80;99.90;;;;;;7362587;32;20186;-55